sensor_id;sensor_type;location;lat;lon;timestamp;temperature;humidity
14277;DHT22;7222;57.346;12.150;2023-05-10T00:00:51;9.90;1.00
14277;DHT22;7222;57.346;12.150;2023-05-10T00:03:18;9.90;1.00
14277;DHT22;7222;57.346;12.150;2023-05-10T00:05:45;9.90;1.00
14277;DHT22;7222;57.346;12.150;2023-05-10T00:08:12;9.80;1.00
14277;DHT22;7222;57.346;12.150;2023-05-10T00:10:39;9.80;1.00
14277;DHT22;7222;57.346;12.150;2023-05-10T00:13:07;9.80;1.00
14277;DHT22;7222;57.346;12.150;2023-05-10T00:15:35;9.80;1.00
14277;DHT22;7222;57.346;12.150;2023-05-10T00:18:02;9.90;1.00
14277;DHT22;7222;57.346;12.150;2023-05-10T00:20:29;9.80;1.00
14277;DHT22;7222;57.346;12.150;2023-05-10T00:22:56;9.70;1.00
14277;DHT22;7222;57.346;12.150;2023-05-10T00:25:23;9.60;1.00
14277;DHT22;7222;57.346;12.150;2023-05-10T00:27:50;9.70;1.00
14277;DHT22;7222;57.346;12.150;2023-05-10T00:30:19;9.60;1.00
14277;DHT22;7222;57.346;12.150;2023-05-10T00:32:46;9.50;1.00
14277;DHT22;7222;57.346;12.150;2023-05-10T00:35:15;9.60;1.00
14277;DHT22;7222;57.346;12.150;2023-05-10T00:37:42;9.60;1.00
14277;DHT22;7222;57.346;12.150;2023-05-10T00:40:11;9.50;1.00
14277;DHT22;7222;57.346;12.150;2023-05-10T00:42:38;9.40;1.00
14277;DHT22;7222;57.346;12.150;2023-05-10T00:45:06;9.40;1.00
14277;DHT22;7222;57.346;12.150;2023-05-10T00:47:35;9.40;1.00
14277;DHT22;7222;57.346;12.150;2023-05-10T00:50:03;9.40;1.00
14277;DHT22;7222;57.346;12.150;2023-05-10T00:52:31;9.40;1.00
14277;DHT22;7222;57.346;12.150;2023-05-10T00:54:58;9.40;1.00
14277;DHT22;7222;57.346;12.150;2023-05-10T00:57:25;9.40;1.00
14277;DHT22;7222;57.346;12.150;2023-05-10T00:59:52;9.40;1.00
14277;DHT22;7222;57.346;12.150;2023-05-10T01:02:19;9.40;1.00
14277;DHT22;7222;57.346;12.150;2023-05-10T01:04:48;9.40;1.00
14277;DHT22;7222;57.346;12.150;2023-05-10T01:07:16;9.40;1.00
14277;DHT22;7222;57.346;12.150;2023-05-10T01:09:43;9.40;1.00
14277;DHT22;7222;57.346;12.150;2023-05-10T01:12:10;9.40;1.00
14277;DHT22;7222;57.346;12.150;2023-05-10T01:14:37;9.30;1.00
14277;DHT22;7222;57.346;12.150;2023-05-10T01:17:05;9.30;1.00
14277;DHT22;7222;57.346;12.150;2023-05-10T01:19:34;9.30;1.00
14277;DHT22;7222;57.346;12.150;2023-05-10T01:22:14;9.30;1.00
14277;DHT22;7222;57.346;12.150;2023-05-10T01:25:03;9.30;1.00
14277;DHT22;7222;57.346;12.150;2023-05-10T01:27:52;9.20;1.00
14277;DHT22;7222;57.346;12.150;2023-05-10T01:30:56;9.20;1.00
14277;DHT22;7222;57.346;12.150;2023-05-10T01:33:33;9.20;1.00
14277;DHT22;7222;57.346;12.150;2023-05-10T01:36:05;9.10;1.00
14277;DHT22;7222;57.346;12.150;2023-05-10T01:38:40;9.20;1.00
14277;DHT22;7222;57.346;12.150;2023-05-10T01:41:14;9.20;1.00
14277;DHT22;7222;57.346;12.150;2023-05-10T01:43:51;9.10;1.00
14277;DHT22;7222;57.346;12.150;2023-05-10T01:46:27;9.00;1.00
14277;DHT22;7222;57.346;12.150;2023-05-10T01:48:58;9.00;1.00
14277;DHT22;7222;57.346;12.150;2023-05-10T01:51:29;9.00;1.00
14277;DHT22;7222;57.346;12.150;2023-05-10T01:54:01;9.00;1.00
14277;DHT22;7222;57.346;12.150;2023-05-10T01:56:31;8.90;1.00
14277;DHT22;7222;57.346;12.150;2023-05-10T01:59:00;8.90;1.00
14277;DHT22;7222;57.346;12.150;2023-05-10T02:01:28;8.90;1.00
14277;DHT22;7222;57.346;12.150;2023-05-10T02:03:57;8.90;1.00
14277;DHT22;7222;57.346;12.150;2023-05-10T02:06:25;8.90;1.00
14277;DHT22;7222;57.346;12.150;2023-05-10T02:08:53;8.80;1.00
14277;DHT22;7222;57.346;12.150;2023-05-10T02:11:21;8.90;1.00
14277;DHT22;7222;57.346;12.150;2023-05-10T02:13:50;8.80;1.00
14277;DHT22;7222;57.346;12.150;2023-05-10T02:16:20;8.80;1.00
14277;DHT22;7222;57.346;12.150;2023-05-10T02:18:52;8.80;1.00
14277;DHT22;7222;57.346;12.150;2023-05-10T02:21:21;8.90;1.00
14277;DHT22;7222;57.346;12.150;2023-05-10T02:23:50;8.90;1.00
14277;DHT22;7222;57.346;12.150;2023-05-10T02:26:20;8.90;1.00
14277;DHT22;7222;57.346;12.150;2023-05-10T02:28:47;8.90;1.00
14277;DHT22;7222;57.346;12.150;2023-05-10T02:31:16;8.80;1.00
14277;DHT22;7222;57.346;12.150;2023-05-10T02:33:44;8.80;1.00
14277;DHT22;7222;57.346;12.150;2023-05-10T02:36:13;8.70;1.00
14277;DHT22;7222;57.346;12.150;2023-05-10T02:38:42;8.70;1.00
14277;DHT22;7222;57.346;12.150;2023-05-10T02:41:10;8.70;1.00
14277;DHT22;7222;57.346;12.150;2023-05-10T02:43:38;8.70;1.00
14277;DHT22;7222;57.346;12.150;2023-05-10T02:46:06;8.80;1.00
14277;DHT22;7222;57.346;12.150;2023-05-10T02:48:33;8.80;1.00
14277;DHT22;7222;57.346;12.150;2023-05-10T02:51:04;8.80;1.00
14277;DHT22;7222;57.346;12.150;2023-05-10T02:53:35;8.70;1.00
14277;DHT22;7222;57.346;12.150;2023-05-10T02:56:11;8.80;1.00
14277;DHT22;7222;57.346;12.150;2023-05-10T02:58:39;8.80;1.00
14277;DHT22;7222;57.346;12.150;2023-05-10T03:01:06;8.80;1.00
14277;DHT22;7222;57.346;12.150;2023-05-10T03:03:34;8.80;1.00
14277;DHT22;7222;57.346;12.150;2023-05-10T03:06:01;8.70;1.00
14277;DHT22;7222;57.346;12.150;2023-05-10T03:08:29;8.70;1.00
14277;DHT22;7222;57.346;12.150;2023-05-10T03:11:15;8.70;1.00
14277;DHT22;7222;57.346;12.150;2023-05-10T03:13:52;8.70;1.00
14277;DHT22;7222;57.346;12.150;2023-05-10T03:16:27;8.70;1.00
14277;DHT22;7222;57.346;12.150;2023-05-10T03:18:59;8.70;32.30
14277;DHT22;7222;57.346;12.150;2023-05-10T03:21:29;8.70;1.00
14277;DHT22;7222;57.346;12.150;2023-05-10T03:24:01;8.60;1.00
14277;DHT22;7222;57.346;12.150;2023-05-10T03:26:32;8.70;56.90
14277;DHT22;7222;57.346;12.150;2023-05-10T03:28:59;8.60;1.00
14277;DHT22;7222;57.346;12.150;2023-05-10T03:31:27;8.70;13.90
14277;DHT22;7222;57.346;12.150;2023-05-10T03:33:55;8.80;1.00
14277;DHT22;7222;57.346;12.150;2023-05-10T03:36:21;8.70;1.00
14277;DHT22;7222;57.346;12.150;2023-05-10T03:38:48;8.80;1.00
14277;DHT22;7222;57.346;12.150;2023-05-10T03:41:15;8.90;69.70
14277;DHT22;7222;57.346;12.150;2023-05-10T03:43:44;9.00;55.10
14277;DHT22;7222;57.346;12.150;2023-05-10T03:46:11;8.80;1.00
14277;DHT22;7222;57.346;12.150;2023-05-10T03:48:38;8.80;47.60
14277;DHT22;7222;57.346;12.150;2023-05-10T03:51:05;9.00;17.70
14277;DHT22;7222;57.346;12.150;2023-05-10T03:53:32;8.90;52.10
14277;DHT22;7222;57.346;12.150;2023-05-10T03:55:59;9.00;8.60
14277;DHT22;7222;57.346;12.150;2023-05-10T03:58:26;9.00;90.50
14277;DHT22;7222;57.346;12.150;2023-05-10T04:00:55;9.00;59.90
14277;DHT22;7222;57.346;12.150;2023-05-10T04:03:22;9.00;1.00
14277;DHT22;7222;57.346;12.150;2023-05-10T04:05:49;9.20;1.00
14277;DHT22;7222;57.346;12.150;2023-05-10T04:08:16;9.20;1.00
14277;DHT22;7222;57.346;12.150;2023-05-10T04:10:43;9.10;29.90
14277;DHT22;7222;57.346;12.150;2023-05-10T04:13:10;9.40;1.00
14277;DHT22;7222;57.346;12.150;2023-05-10T04:15:36;9.10;1.00
14277;DHT22;7222;57.346;12.150;2023-05-10T04:18:05;9.10;1.00
14277;DHT22;7222;57.346;12.150;2023-05-10T04:20:32;9.20;1.00
14277;DHT22;7222;57.346;12.150;2023-05-10T04:22:59;9.20;1.00
14277;DHT22;7222;57.346;12.150;2023-05-10T04:25:26;9.20;1.00
14277;DHT22;7222;57.346;12.150;2023-05-10T04:27:53;9.30;1.00
14277;DHT22;7222;57.346;12.150;2023-05-10T04:30:21;9.50;12.70
14277;DHT22;7222;57.346;12.150;2023-05-10T04:32:48;9.40;1.00
14277;DHT22;7222;57.346;12.150;2023-05-10T04:35:16;9.60;16.50
14277;DHT22;7222;57.346;12.150;2023-05-10T04:37:43;9.70;1.00
14277;DHT22;7222;57.346;12.150;2023-05-10T04:40:11;9.50;32.80
14277;DHT22;7222;57.346;12.150;2023-05-10T04:42:39;9.70;1.10
14277;DHT22;7222;57.346;12.150;2023-05-10T04:45:07;9.70;28.40
14277;DHT22;7222;57.346;12.150;2023-05-10T04:47:34;9.80;18.90
14277;DHT22;7222;57.346;12.150;2023-05-10T04:50:02;9.70;1.00
14277;DHT22;7222;57.346;12.150;2023-05-10T04:52:31;10.00;10.10
14277;DHT22;7222;57.346;12.150;2023-05-10T04:54:58;10.10;1.00
14277;DHT22;7222;57.346;12.150;2023-05-10T04:57:25;10.10;1.00
14277;DHT22;7222;57.346;12.150;2023-05-10T04:59:52;10.00;1.00
14277;DHT22;7222;57.346;12.150;2023-05-10T05:02:19;10.20;1.00
14277;DHT22;7222;57.346;12.150;2023-05-10T05:04:45;10.40;1.00
14277;DHT22;7222;57.346;12.150;2023-05-10T05:07:12;10.60;1.00
14277;DHT22;7222;57.346;12.150;2023-05-10T05:09:41;10.60;1.00
14277;DHT22;7222;57.346;12.150;2023-05-10T05:12:09;10.70;1.00
14277;DHT22;7222;57.346;12.150;2023-05-10T05:14:39;10.80;1.00
14277;DHT22;7222;57.346;12.150;2023-05-10T05:17:06;10.90;1.00
14277;DHT22;7222;57.346;12.150;2023-05-10T05:19:33;11.00;1.00
14277;DHT22;7222;57.346;12.150;2023-05-10T05:22:01;11.00;1.00
14277;DHT22;7222;57.346;12.150;2023-05-10T05:24:28;11.30;1.00
14277;DHT22;7222;57.346;12.150;2023-05-10T05:26:56;11.30;1.00
14277;DHT22;7222;57.346;12.150;2023-05-10T05:29:23;11.40;1.00
14277;DHT22;7222;57.346;12.150;2023-05-10T05:31:50;11.40;1.00
14277;DHT22;7222;57.346;12.150;2023-05-10T05:34:17;11.50;1.00
14277;DHT22;7222;57.346;12.150;2023-05-10T05:36:46;11.70;1.00
14277;DHT22;7222;57.346;12.150;2023-05-10T05:39:12;11.80;1.00
14277;DHT22;7222;57.346;12.150;2023-05-10T05:41:39;11.80;1.00
14277;DHT22;7222;57.346;12.150;2023-05-10T05:44:08;12.10;1.00
14277;DHT22;7222;57.346;12.150;2023-05-10T05:46:35;12.00;1.00
14277;DHT22;7222;57.346;12.150;2023-05-10T05:49:02;12.20;1.00
14277;DHT22;7222;57.346;12.150;2023-05-10T05:51:29;12.20;1.00
14277;DHT22;7222;57.346;12.150;2023-05-10T05:53:57;12.40;1.00
14277;DHT22;7222;57.346;12.150;2023-05-10T05:56:24;12.50;1.00
14277;DHT22;7222;57.346;12.150;2023-05-10T05:58:51;12.60;1.00
14277;DHT22;7222;57.346;12.150;2023-05-10T06:01:19;12.80;1.00
14277;DHT22;7222;57.346;12.150;2023-05-10T06:03:46;13.00;1.00
14277;DHT22;7222;57.346;12.150;2023-05-10T06:06:13;13.10;1.00
14277;DHT22;7222;57.346;12.150;2023-05-10T06:08:40;13.20;1.00
14277;DHT22;7222;57.346;12.150;2023-05-10T06:11:07;13.30;1.00
14277;DHT22;7222;57.346;12.150;2023-05-10T06:13:34;13.40;1.00
14277;DHT22;7222;57.346;12.150;2023-05-10T06:16:01;13.50;1.00
14277;DHT22;7222;57.346;12.150;2023-05-10T06:18:30;13.70;1.00
14277;DHT22;7222;57.346;12.150;2023-05-10T06:20:57;13.80;1.00
14277;DHT22;7222;57.346;12.150;2023-05-10T06:23:24;13.90;1.00
14277;DHT22;7222;57.346;12.150;2023-05-10T06:25:51;14.10;1.00
14277;DHT22;7222;57.346;12.150;2023-05-10T06:28:19;14.10;1.00
14277;DHT22;7222;57.346;12.150;2023-05-10T06:30:46;14.30;1.00
14277;DHT22;7222;57.346;12.150;2023-05-10T06:33:13;14.50;1.00
14277;DHT22;7222;57.346;12.150;2023-05-10T06:35:42;14.50;1.00
14277;DHT22;7222;57.346;12.150;2023-05-10T06:38:09;14.50;1.00
14277;DHT22;7222;57.346;12.150;2023-05-10T06:40:36;14.70;1.00
14277;DHT22;7222;57.346;12.150;2023-05-10T06:43:03;14.90;1.00
14277;DHT22;7222;57.346;12.150;2023-05-10T06:45:31;15.10;1.00
14277;DHT22;7222;57.346;12.150;2023-05-10T06:47:57;15.10;1.00
14277;DHT22;7222;57.346;12.150;2023-05-10T06:50:25;15.20;1.00
14277;DHT22;7222;57.346;12.150;2023-05-10T06:52:53;15.30;1.00
14277;DHT22;7222;57.346;12.150;2023-05-10T06:55:21;15.30;1.00
14277;DHT22;7222;57.346;12.150;2023-05-10T06:57:48;15.70;1.00
14277;DHT22;7222;57.346;12.150;2023-05-10T07:00:17;15.60;1.00
14277;DHT22;7222;57.346;12.150;2023-05-10T07:02:45;15.80;1.00
14277;DHT22;7222;57.346;12.150;2023-05-10T07:05:12;16.00;1.00
14277;DHT22;7222;57.346;12.150;2023-05-10T07:07:40;16.00;1.00
14277;DHT22;7222;57.346;12.150;2023-05-10T07:10:09;16.00;1.00
14277;DHT22;7222;57.346;12.150;2023-05-10T07:12:36;16.40;1.00
14277;DHT22;7222;57.346;12.150;2023-05-10T07:15:04;16.90;1.00
14277;DHT22;7222;57.346;12.150;2023-05-10T07:17:32;17.10;1.00
14277;DHT22;7222;57.346;12.150;2023-05-10T07:20:00;17.30;1.00
14277;DHT22;7222;57.346;12.150;2023-05-10T07:22:29;17.10;1.00
14277;DHT22;7222;57.346;12.150;2023-05-10T07:24:56;16.80;1.00
14277;DHT22;7222;57.346;12.150;2023-05-10T07:27:24;17.20;1.00
14277;DHT22;7222;57.346;12.150;2023-05-10T07:29:52;17.40;1.00
14277;DHT22;7222;57.346;12.150;2023-05-10T07:32:20;16.90;1.00
14277;DHT22;7222;57.346;12.150;2023-05-10T07:34:47;17.10;1.00
14277;DHT22;7222;57.346;12.150;2023-05-10T07:37:14;17.70;1.00
14277;DHT22;7222;57.346;12.150;2023-05-10T07:39:41;18.10;1.00
14277;DHT22;7222;57.346;12.150;2023-05-10T07:42:08;17.80;1.00
14277;DHT22;7222;57.346;12.150;2023-05-10T07:44:37;17.50;1.00
14277;DHT22;7222;57.346;12.150;2023-05-10T07:47:04;17.40;1.00
14277;DHT22;7222;57.346;12.150;2023-05-10T07:49:31;17.20;1.00
14277;DHT22;7222;57.346;12.150;2023-05-10T07:51:58;17.70;1.00
14277;DHT22;7222;57.346;12.150;2023-05-10T07:54:25;17.30;1.00
14277;DHT22;7222;57.346;12.150;2023-05-10T07:56:53;17.70;1.00
14277;DHT22;7222;57.346;12.150;2023-05-10T07:59:21;17.40;1.00
14277;DHT22;7222;57.346;12.150;2023-05-10T08:01:49;18.10;1.00
14277;DHT22;7222;57.346;12.150;2023-05-10T08:04:16;18.00;1.00
14277;DHT22;7222;57.346;12.150;2023-05-10T08:06:43;17.80;1.00
14277;DHT22;7222;57.346;12.150;2023-05-10T08:09:11;17.80;1.00
14277;DHT22;7222;57.346;12.150;2023-05-10T08:11:38;18.10;1.00
14277;DHT22;7222;57.346;12.150;2023-05-10T08:14:05;17.90;1.00
14277;DHT22;7222;57.346;12.150;2023-05-10T08:16:32;18.60;1.00
14277;DHT22;7222;57.346;12.150;2023-05-10T08:19:01;18.70;1.00
14277;DHT22;7222;57.346;12.150;2023-05-10T08:21:28;19.10;1.00
14277;DHT22;7222;57.346;12.150;2023-05-10T08:23:56;19.50;1.00
14277;DHT22;7222;57.346;12.150;2023-05-10T08:26:23;19.20;1.00
14277;DHT22;7222;57.346;12.150;2023-05-10T08:28:51;19.20;1.00
14277;DHT22;7222;57.346;12.150;2023-05-10T08:31:18;19.50;1.00
14277;DHT22;7222;57.346;12.150;2023-05-10T08:33:45;20.30;1.00
14277;DHT22;7222;57.346;12.150;2023-05-10T08:36:14;20.90;1.00
14277;DHT22;7222;57.346;12.150;2023-05-10T08:38:45;20.70;1.00
14277;DHT22;7222;57.346;12.150;2023-05-10T08:41:12;19.50;1.00
14277;DHT22;7222;57.346;12.150;2023-05-10T08:43:40;19.10;1.00
14277;DHT22;7222;57.346;12.150;2023-05-10T08:46:13;19.20;1.00
14277;DHT22;7222;57.346;12.150;2023-05-10T08:48:43;19.30;1.00
14277;DHT22;7222;57.346;12.150;2023-05-10T08:51:15;19.90;1.00
14277;DHT22;7222;57.346;12.150;2023-05-10T08:53:44;20.10;1.00
14277;DHT22;7222;57.346;12.150;2023-05-10T08:56:12;20.00;1.00
14277;DHT22;7222;57.346;12.150;2023-05-10T08:58:38;20.40;1.00
14277;DHT22;7222;57.346;12.150;2023-05-10T09:01:06;21.00;1.00
14277;DHT22;7222;57.346;12.150;2023-05-10T09:03:34;20.30;1.00
14277;DHT22;7222;57.346;12.150;2023-05-10T09:06:01;19.70;1.00
14277;DHT22;7222;57.346;12.150;2023-05-10T09:08:30;20.50;1.00
14277;DHT22;7222;57.346;12.150;2023-05-10T09:10:58;21.40;1.00
14277;DHT22;7222;57.346;12.150;2023-05-10T09:13:26;20.90;1.00
14277;DHT22;7222;57.346;12.150;2023-05-10T09:15:54;20.50;1.00
14277;DHT22;7222;57.346;12.150;2023-05-10T09:18:21;20.90;1.00
14277;DHT22;7222;57.346;12.150;2023-05-10T09:20:48;20.10;1.00
14277;DHT22;7222;57.346;12.150;2023-05-10T09:23:15;21.00;1.00
14277;DHT22;7222;57.346;12.150;2023-05-10T09:25:44;21.60;1.00
14277;DHT22;7222;57.346;12.150;2023-05-10T09:28:11;21.50;1.00
14277;DHT22;7222;57.346;12.150;2023-05-10T09:30:39;22.10;1.00
14277;DHT22;7222;57.346;12.150;2023-05-10T09:33:08;22.40;1.00
14277;DHT22;7222;57.346;12.150;2023-05-10T09:35:35;21.30;1.00
14277;DHT22;7222;57.346;12.150;2023-05-10T09:38:04;21.10;1.00
14277;DHT22;7222;57.346;12.150;2023-05-10T09:40:31;21.10;1.00
14277;DHT22;7222;57.346;12.150;2023-05-10T09:43:01;21.10;1.00
14277;DHT22;7222;57.346;12.150;2023-05-10T09:45:30;22.10;1.00
14277;DHT22;7222;57.346;12.150;2023-05-10T09:47:57;21.70;1.00
14277;DHT22;7222;57.346;12.150;2023-05-10T09:50:26;20.90;1.00
14277;DHT22;7222;57.346;12.150;2023-05-10T09:52:55;21.90;1.00
14277;DHT22;7222;57.346;12.150;2023-05-10T09:55:25;21.00;1.00
14277;DHT22;7222;57.346;12.150;2023-05-10T09:58:00;22.10;1.00
14277;DHT22;7222;57.346;12.150;2023-05-10T10:00:28;23.00;1.00
14277;DHT22;7222;57.346;12.150;2023-05-10T10:03:01;21.00;1.00
14277;DHT22;7222;57.346;12.150;2023-05-10T10:05:29;20.20;1.00
14277;DHT22;7222;57.346;12.150;2023-05-10T10:07:57;19.90;1.00
14277;DHT22;7222;57.346;12.150;2023-05-10T10:10:24;20.10;1.00
14277;DHT22;7222;57.346;12.150;2023-05-10T10:12:51;20.00;1.00
14277;DHT22;7222;57.346;12.150;2023-05-10T10:15:20;20.20;1.00
14277;DHT22;7222;57.346;12.150;2023-05-10T10:17:49;21.60;1.00
14277;DHT22;7222;57.346;12.150;2023-05-10T10:20:16;20.20;1.00
14277;DHT22;7222;57.346;12.150;2023-05-10T10:22:43;20.00;1.00
14277;DHT22;7222;57.346;12.150;2023-05-10T10:25:12;19.80;1.00
14277;DHT22;7222;57.346;12.150;2023-05-10T10:27:45;20.00;1.00
14277;DHT22;7222;57.346;12.150;2023-05-10T10:30:24;20.30;1.00
14277;DHT22;7222;57.346;12.150;2023-05-10T10:33:08;20.30;1.00
14277;DHT22;7222;57.346;12.150;2023-05-10T10:35:38;22.00;1.00
14277;DHT22;7222;57.346;12.150;2023-05-10T10:38:07;22.40;1.00
14277;DHT22;7222;57.346;12.150;2023-05-10T10:40:35;21.80;1.00
14277;DHT22;7222;57.346;12.150;2023-05-10T10:43:22;21.80;1.00
14277;DHT22;7222;57.346;12.150;2023-05-10T10:46:13;21.10;1.00
14277;DHT22;7222;57.346;12.150;2023-05-10T10:48:43;21.20;1.00
14277;DHT22;7222;57.346;12.150;2023-05-10T10:51:13;22.80;1.00
14277;DHT22;7222;57.346;12.150;2023-05-10T10:53:41;23.50;1.00
14277;DHT22;7222;57.346;12.150;2023-05-10T10:56:09;21.50;1.00
14277;DHT22;7222;57.346;12.150;2023-05-10T10:58:37;21.60;1.00
14277;DHT22;7222;57.346;12.150;2023-05-10T11:01:13;21.00;1.00
14277;DHT22;7222;57.346;12.150;2023-05-10T11:04:16;21.90;1.00
14277;DHT22;7222;57.346;12.150;2023-05-10T11:06:41;21.60;1.00
14277;DHT22;7222;57.346;12.150;2023-05-10T11:09:11;20.70;1.00
14277;DHT22;7222;57.346;12.150;2023-05-10T11:11:49;21.00;1.00
14277;DHT22;7222;57.346;12.150;2023-05-10T11:14:20;20.70;1.00
14277;DHT22;7222;57.346;12.150;2023-05-10T11:16:49;20.90;1.00
14277;DHT22;7222;57.346;12.150;2023-05-10T11:19:17;22.40;1.00
14277;DHT22;7222;57.346;12.150;2023-05-10T11:21:46;21.60;1.00
14277;DHT22;7222;57.346;12.150;2023-05-10T11:24:15;24.00;1.00
14277;DHT22;7222;57.346;12.150;2023-05-10T11:26:42;24.50;1.00
14277;DHT22;7222;57.346;12.150;2023-05-10T11:29:09;24.00;1.00
14277;DHT22;7222;57.346;12.150;2023-05-10T11:31:42;23.00;1.00
14277;DHT22;7222;57.346;12.150;2023-05-10T11:34:12;22.80;1.00
14277;DHT22;7222;57.346;12.150;2023-05-10T11:36:51;24.80;1.00
14277;DHT22;7222;57.346;12.150;2023-05-10T11:39:19;26.50;1.00
14277;DHT22;7222;57.346;12.150;2023-05-10T11:41:49;25.70;1.00
14277;DHT22;7222;57.346;12.150;2023-05-10T11:44:16;26.10;1.00
14277;DHT22;7222;57.346;12.150;2023-05-10T11:46:43;27.40;1.00
14277;DHT22;7222;57.346;12.150;2023-05-10T11:49:12;26.20;99.90
14277;DHT22;7222;57.346;12.150;2023-05-10T11:51:39;26.20;1.00
14277;DHT22;7222;57.346;12.150;2023-05-10T11:54:09;23.70;99.90
14277;DHT22;7222;57.346;12.150;2023-05-10T11:56:36;22.10;99.90
14277;DHT22;7222;57.346;12.150;2023-05-10T11:59:04;23.10;99.90
14277;DHT22;7222;57.346;12.150;2023-05-10T12:01:31;24.70;1.00
14277;DHT22;7222;57.346;12.150;2023-05-10T12:03:59;25.30;99.90
14277;DHT22;7222;57.346;12.150;2023-05-10T12:06:29;26.70;1.00
14277;DHT22;7222;57.346;12.150;2023-05-10T12:08:57;27.50;99.90
14277;DHT22;7222;57.346;12.150;2023-05-10T12:11:25;27.90;99.90
14277;DHT22;7222;57.346;12.150;2023-05-10T12:13:53;27.90;99.90
14277;DHT22;7222;57.346;12.150;2023-05-10T12:16:22;27.30;99.90
14277;DHT22;7222;57.346;12.150;2023-05-10T12:18:49;25.50;99.90
14277;DHT22;7222;57.346;12.150;2023-05-10T12:21:18;24.60;99.90
14277;DHT22;7222;57.346;12.150;2023-05-10T12:23:51;24.90;99.90
14277;DHT22;7222;57.346;12.150;2023-05-10T12:26:21;22.70;99.90
14277;DHT22;7222;57.346;12.150;2023-05-10T12:28:50;22.70;99.90
14277;DHT22;7222;57.346;12.150;2023-05-10T12:31:17;22.50;99.90
14277;DHT22;7222;57.346;12.150;2023-05-10T12:33:44;23.30;99.90
14277;DHT22;7222;57.346;12.150;2023-05-10T12:36:14;23.30;99.90
14277;DHT22;7222;57.346;12.150;2023-05-10T12:38:42;22.80;99.90
14277;DHT22;7222;57.346;12.150;2023-05-10T12:41:12;23.00;99.90
14277;DHT22;7222;57.346;12.150;2023-05-10T12:43:39;22.70;99.90
14277;DHT22;7222;57.346;12.150;2023-05-10T12:46:07;22.10;99.90
14277;DHT22;7222;57.346;12.150;2023-05-10T12:48:35;22.50;99.90
14277;DHT22;7222;57.346;12.150;2023-05-10T12:51:03;23.00;99.90
14277;DHT22;7222;57.346;12.150;2023-05-10T12:53:30;22.50;99.90
14277;DHT22;7222;57.346;12.150;2023-05-10T12:55:57;22.50;99.90
14277;DHT22;7222;57.346;12.150;2023-05-10T12:58:26;22.10;99.90
14277;DHT22;7222;57.346;12.150;2023-05-10T13:00:54;23.00;99.90
14277;DHT22;7222;57.346;12.150;2023-05-10T13:03:21;23.40;99.90
14277;DHT22;7222;57.346;12.150;2023-05-10T13:05:49;21.80;99.90
14277;DHT22;7222;57.346;12.150;2023-05-10T13:08:16;22.10;99.90
14277;DHT22;7222;57.346;12.150;2023-05-10T13:10:43;21.80;99.90
14277;DHT22;7222;57.346;12.150;2023-05-10T13:13:10;22.10;99.90
14277;DHT22;7222;57.346;12.150;2023-05-10T13:15:38;21.80;99.90
14277;DHT22;7222;57.346;12.150;2023-05-10T13:18:05;21.90;99.90
14277;DHT22;7222;57.346;12.150;2023-05-10T13:20:32;22.50;99.90
14277;DHT22;7222;57.346;12.150;2023-05-10T13:22:59;24.60;99.90
14277;DHT22;7222;57.346;12.150;2023-05-10T13:25:26;24.30;99.90
14277;DHT22;7222;57.346;12.150;2023-05-10T13:27:54;23.50;99.90
14277;DHT22;7222;57.346;12.150;2023-05-10T13:30:21;22.20;99.90
14277;DHT22;7222;57.346;12.150;2023-05-10T13:32:51;24.40;99.90
14277;DHT22;7222;57.346;12.150;2023-05-10T13:35:17;23.70;99.90
14277;DHT22;7222;57.346;12.150;2023-05-10T13:37:44;23.20;99.90
14277;DHT22;7222;57.346;12.150;2023-05-10T13:40:11;23.10;99.90
14277;DHT22;7222;57.346;12.150;2023-05-10T13:42:39;22.50;99.90
14277;DHT22;7222;57.346;12.150;2023-05-10T13:45:06;23.10;99.90
14277;DHT22;7222;57.346;12.150;2023-05-10T13:47:33;21.90;99.90
14277;DHT22;7222;57.346;12.150;2023-05-10T13:50:02;22.70;99.90
14277;DHT22;7222;57.346;12.150;2023-05-10T13:52:29;24.20;99.90
14277;DHT22;7222;57.346;12.150;2023-05-10T13:54:56;23.50;99.90
14277;DHT22;7222;57.346;12.150;2023-05-10T13:57:23;23.40;99.90
14277;DHT22;7222;57.346;12.150;2023-05-10T13:59:51;22.70;99.90
14277;DHT22;7222;57.346;12.150;2023-05-10T14:02:17;25.80;99.90
14277;DHT22;7222;57.346;12.150;2023-05-10T14:04:44;26.10;99.90
14277;DHT22;7222;57.346;12.150;2023-05-10T14:07:13;26.00;99.90
14277;DHT22;7222;57.346;12.150;2023-05-10T14:09:40;23.40;99.90
14277;DHT22;7222;57.346;12.150;2023-05-10T14:12:07;24.50;99.90
14277;DHT22;7222;57.346;12.150;2023-05-10T14:14:34;23.80;99.90
14277;DHT22;7222;57.346;12.150;2023-05-10T14:17:01;23.30;99.90
14277;DHT22;7222;57.346;12.150;2023-05-10T14:19:28;22.50;99.90
14277;DHT22;7222;57.346;12.150;2023-05-10T14:21:57;22.60;99.90
14277;DHT22;7222;57.346;12.150;2023-05-10T14:24:26;22.40;99.90
14277;DHT22;7222;57.346;12.150;2023-05-10T14:26:53;23.10;99.90
14277;DHT22;7222;57.346;12.150;2023-05-10T14:29:20;24.40;99.90
14277;DHT22;7222;57.346;12.150;2023-05-10T14:31:47;23.50;99.90
14277;DHT22;7222;57.346;12.150;2023-05-10T14:34:14;22.70;99.90
14277;DHT22;7222;57.346;12.150;2023-05-10T14:36:42;23.10;99.90
14277;DHT22;7222;57.346;12.150;2023-05-10T14:39:08;23.60;99.90
14277;DHT22;7222;57.346;12.150;2023-05-10T14:41:39;21.50;99.90
14277;DHT22;7222;57.346;12.150;2023-05-10T14:44:08;22.10;99.90
14277;DHT22;7222;57.346;12.150;2023-05-10T14:46:35;23.10;99.90
14277;DHT22;7222;57.346;12.150;2023-05-10T14:49:02;23.30;99.90
14277;DHT22;7222;57.346;12.150;2023-05-10T14:51:29;22.40;99.90
14277;DHT22;7222;57.346;12.150;2023-05-10T14:53:57;23.40;99.90
14277;DHT22;7222;57.346;12.150;2023-05-10T14:56:24;23.70;99.90
14277;DHT22;7222;57.346;12.150;2023-05-10T14:58:54;25.30;99.90
14277;DHT22;7222;57.346;12.150;2023-05-10T15:01:21;25.20;99.90
14277;DHT22;7222;57.346;12.150;2023-05-10T15:03:48;25.60;99.90
14277;DHT22;7222;57.346;12.150;2023-05-10T15:06:16;26.10;99.90
14277;DHT22;7222;57.346;12.150;2023-05-10T15:08:44;26.40;99.90
14277;DHT22;7222;57.346;12.150;2023-05-10T15:11:11;24.70;99.90
14277;DHT22;7222;57.346;12.150;2023-05-10T15:13:38;25.70;99.90
14277;DHT22;7222;57.346;12.150;2023-05-10T15:16:07;25.90;99.90
14277;DHT22;7222;57.346;12.150;2023-05-10T15:18:34;25.20;99.90
14277;DHT22;7222;57.346;12.150;2023-05-10T15:21:00;23.10;99.90
14277;DHT22;7222;57.346;12.150;2023-05-10T15:23:27;23.50;99.90
14277;DHT22;7222;57.346;12.150;2023-05-10T15:25:55;22.00;99.90
14277;DHT22;7222;57.346;12.150;2023-05-10T15:28:22;23.40;99.90
14277;DHT22;7222;57.346;12.150;2023-05-10T15:30:50;23.30;99.90
14277;DHT22;7222;57.346;12.150;2023-05-10T15:33:18;24.20;99.90
14277;DHT22;7222;57.346;12.150;2023-05-10T15:35:47;23.70;99.90
14277;DHT22;7222;57.346;12.150;2023-05-10T15:38:14;23.00;99.90
14277;DHT22;7222;57.346;12.150;2023-05-10T15:40:41;23.90;99.90
14277;DHT22;7222;57.346;12.150;2023-05-10T15:43:08;22.70;99.90
14277;DHT22;7222;57.346;12.150;2023-05-10T15:45:35;21.70;99.90
14277;DHT22;7222;57.346;12.150;2023-05-10T15:48:02;22.00;99.90
14277;DHT22;7222;57.346;12.150;2023-05-10T15:50:30;21.70;99.90
14277;DHT22;7222;57.346;12.150;2023-05-10T15:52:57;22.10;99.90
14277;DHT22;7222;57.346;12.150;2023-05-10T15:55:25;21.70;99.90